createdAt,value
2023-01-17T00:00:00.704Z,0.32
2023-01-17T00:02:02.645Z,0.10
2023-01-17T00:04:23.668Z,0.63
2023-01-17T00:06:44.430Z,0.20
2023-01-17T00:09:04.558Z,0.10
2023-01-17T00:11:06.312Z,0.45
2023-01-17T00:13:08.222Z,0.10
2023-01-17T00:15:10.532Z,0.32
2023-01-17T00:17:12.726Z,0.80
2023-01-17T00:19:32.909Z,0.08
2023-01-17T00:21:53.258Z,0.17
2023-01-17T00:24:13.713Z,0.35
2023-01-17T00:26:18.783Z,0.00
2023-01-17T00:28:20.488Z,6.30
2023-01-17T00:30:22.453Z,0.40
2023-01-17T00:32:24.128Z,0.32
2023-01-17T00:34:25.836Z,0.68
2023-01-17T00:36:27.569Z,0.20
2023-01-17T00:38:32.205Z,0.63
2023-01-17T00:40:35.168Z,0.30
2023-01-17T00:42:36.872Z,0.45
2023-01-17T00:44:57.523Z,0.75
2023-01-17T00:47:17.879Z,0.00
2023-01-17T00:49:38.332Z,0.10
2023-01-17T00:51:58.659Z,0.25
2023-01-17T00:54:19.613Z,0.20
2023-01-17T00:56:40.083Z,0.10
2023-01-17T00:59:00.456Z,0.10
2023-01-17T01:01:25.277Z,1.30
2023-01-17T01:03:45.562Z,0.00
2023-01-17T01:06:06.069Z,0.10
2023-01-17T01:08:44.331Z,0.30
2023-01-17T01:11:06.288Z,0.00
2023-01-17T01:13:26.628Z,0.32
2023-01-17T01:15:47.021Z,0.30
2023-01-17T01:18:07.510Z,0.20
2023-01-17T01:20:29.173Z,0.15
2023-01-17T01:22:49.703Z,2.20
2023-01-17T01:25:10.234Z,0.10
2023-01-17T01:27:31.109Z,0.30
2023-01-17T01:29:51.580Z,0.10
2023-01-17T01:32:12.091Z,0.03
2023-01-17T01:34:13.892Z,0.10
2023-01-17T01:36:15.916Z,0.15
2023-01-17T01:38:19.501Z,0.80
2023-01-17T01:40:21.727Z,0.10
2023-01-17T01:42:23.464Z,1.58
2023-01-17T01:45:15.478Z,0.20
2023-01-17T01:47:34.853Z,0.00
2023-01-17T01:49:38.061Z,0.47
2023-01-17T01:51:44.457Z,0.30
2023-01-17T01:53:49.075Z,0.22
2023-01-17T01:55:52.241Z,0.60
2023-01-17T01:57:57.887Z,0.10
2023-01-17T02:00:07.626Z,0.10
2023-01-17T02:02:09.444Z,0.70
2023-01-17T02:04:12.407Z,0.32
2023-01-17T02:06:19.756Z,2.00
2023-01-17T02:08:24.048Z,0.17
2023-01-17T02:10:25.804Z,0.32
2023-01-17T02:12:28.128Z,0.10
2023-01-17T02:14:29.867Z,0.20
2023-01-17T02:17:09.726Z,1.38
2023-01-17T02:19:14.371Z,0.20
2023-01-17T02:21:27.519Z,0.30
2023-01-17T02:24:21.848Z,0.32
2023-01-17T02:26:34.463Z,0.77
2023-01-17T02:29:02.297Z,0.20
2023-01-17T02:31:12.997Z,0.20
2023-01-17T02:33:29.664Z,0.10
2023-01-17T02:35:59.410Z,0.30
2023-01-17T02:38:19.863Z,0.13
2023-01-17T02:40:49.633Z,0.40
2023-01-17T02:42:57.446Z,0.35
2023-01-17T02:44:59.212Z,0.38
2023-01-17T02:47:00.971Z,0.10
2023-01-17T02:49:02.927Z,0.00
2023-01-17T02:51:26.267Z,0.00
2023-01-17T02:53:48.902Z,0.10
2023-01-17T02:56:02.738Z,0.38
2023-01-17T02:58:34.948Z,0.95
2023-01-17T03:01:14.200Z,0.70
2023-01-17T03:03:33.910Z,0.22
2023-01-17T03:05:54.200Z,0.65
2023-01-17T03:07:56.683Z,0.17
2023-01-17T03:12:04.345Z,0.10
2023-01-17T03:14:06.140Z,0.10
2023-01-17T03:16:14.307Z,0.65
2023-01-17T03:18:17.017Z,0.30
2023-01-17T03:20:19.082Z,0.20
2023-01-17T03:22:20.921Z,0.10
2023-01-17T03:24:22.700Z,0.30
2023-01-17T03:26:24.515Z,0.43
2023-01-17T03:28:26.311Z,2.35
2023-01-17T03:30:28.116Z,0.25
2023-01-17T03:32:29.926Z,0.93
2023-01-17T03:34:32.031Z,0.40
2023-01-17T03:36:33.814Z,0.10
2023-01-17T03:38:37.323Z,0.32
2023-01-17T03:40:39.136Z,0.38
2023-01-17T03:42:40.946Z,0.45
2023-01-17T03:44:42.647Z,0.17
2023-01-17T03:46:44.527Z,0.52
2023-01-17T03:48:46.360Z,0.17
2023-01-17T03:50:51.615Z,0.10
2023-01-17T03:52:53.408Z,1.77
2023-01-17T03:54:55.184Z,0.15
2023-01-17T03:56:56.981Z,0.13
2023-01-17T03:58:58.889Z,0.10
2023-01-17T04:01:00.703Z,0.00
2023-01-17T04:03:02.667Z,0.40
2023-01-17T04:05:05.246Z,0.20
2023-01-17T04:09:08.687Z,0.22
2023-01-17T04:11:10.402Z,0.40
2023-01-17T04:13:13.661Z,0.40
2023-01-17T04:15:16.271Z,0.20
2023-01-17T04:19:20.729Z,0.10
2023-01-17T04:21:22.692Z,0.57
2023-01-17T04:23:24.388Z,0.30
2023-01-17T04:25:27.411Z,0.65
2023-01-17T04:27:31.271Z,0.40
2023-01-17T04:29:33.286Z,0.63
2023-01-17T04:31:35.247Z,0.10
2023-01-17T04:33:37.112Z,0.45
2023-01-17T04:35:38.885Z,0.10
2023-01-17T04:37:40.701Z,0.10
2023-01-17T04:39:42.522Z,0.30
2023-01-17T04:41:44.262Z,0.00
2023-01-17T04:43:46.037Z,0.98
2023-01-17T04:45:47.925Z,0.08
2023-01-17T04:47:49.759Z,0.17
2023-01-17T04:49:51.916Z,0.47
2023-01-17T04:51:53.652Z,0.10
2023-01-17T04:53:55.498Z,0.13
2023-01-17T04:55:57.767Z,0.10
2023-01-17T04:57:59.563Z,0.20
2023-01-17T05:00:01.353Z,0.57
2023-01-17T05:02:03.195Z,0.30
2023-01-17T05:04:05.222Z,0.20
2023-01-17T05:06:07.003Z,0.50
2023-01-17T05:08:08.776Z,0.63
2023-01-17T05:10:11.149Z,0.50
2023-01-17T05:12:12.906Z,0.22
2023-01-17T05:14:14.749Z,0.60
2023-01-17T05:16:19.418Z,0.17
2023-01-17T05:18:21.281Z,0.20
2023-01-17T05:20:25.126Z,0.65
2023-01-17T05:22:26.912Z,1.23
2023-01-17T05:24:28.675Z,0.80
2023-01-17T05:26:30.370Z,0.85
2023-01-17T05:28:32.048Z,0.30
2023-01-17T05:30:35.014Z,1.17
2023-01-17T05:32:36.832Z,0.40
2023-01-17T05:34:38.610Z,0.50
2023-01-17T05:36:40.282Z,0.63
2023-01-17T05:38:42.006Z,0.22
2023-01-17T05:40:43.740Z,0.75
2023-01-17T05:42:50.347Z,0.50
2023-01-17T05:44:52.098Z,0.35
2023-01-17T05:46:54.645Z,0.98
2023-01-17T05:48:56.353Z,1.63
2023-01-17T05:50:58.129Z,0.82
2023-01-17T05:58:39.234Z,0.40
2023-01-17T06:01:00.265Z,1.52
2023-01-17T06:03:33.327Z,2.78
2023-01-17T06:12:37.296Z,1.85
2023-01-17T06:24:02.247Z,0.30
2023-01-17T06:27:52.380Z,0.30
2023-01-17T06:36:35.323Z,0.85
2023-01-17T06:38:37.136Z,0.70
2023-01-17T06:40:38.813Z,0.82
2023-01-17T06:42:40.634Z,0.75
2023-01-17T06:44:42.425Z,1.33
2023-01-17T06:46:47.008Z,0.90
2023-01-17T06:48:49.209Z,1.00
2023-01-17T06:50:50.912Z,1.00
2023-01-17T06:53:01.989Z,1.92
2023-01-17T06:55:04.314Z,0.77
2023-01-17T06:57:05.946Z,0.75
2023-01-17T06:59:07.769Z,0.88
2023-01-17T07:01:11.136Z,1.05
2023-01-17T07:03:19.977Z,0.98
2023-01-17T07:05:21.725Z,1.52
2023-01-17T07:07:23.469Z,2.30
2023-01-17T07:09:25.159Z,1.77
2023-01-17T07:11:27.615Z,0.90
2023-01-17T07:13:30.641Z,0.98
2023-01-17T07:15:32.571Z,0.82
2023-01-17T07:17:34.963Z,1.10
2023-01-17T07:19:36.603Z,2.90
2023-01-17T07:21:38.269Z,1.70
2023-01-17T07:23:40.219Z,1.80
2023-01-17T07:25:42.138Z,1.80
2023-01-17T07:27:43.879Z,2.33
2023-01-17T07:29:45.723Z,0.80
2023-01-17T07:31:48.976Z,0.75
2023-01-17T07:33:51.295Z,1.85
2023-01-17T07:35:53.004Z,1.58
2023-01-17T07:37:55.091Z,1.13
2023-01-17T07:39:56.886Z,0.90
2023-01-17T07:41:58.531Z,0.65
2023-01-17T07:44:00.373Z,2.50
2023-01-17T07:46:02.412Z,0.50
2023-01-17T07:48:04.261Z,1.58
2023-01-17T07:50:07.182Z,2.40
2023-01-17T07:52:09.436Z,1.13
2023-01-17T07:54:11.679Z,2.80
2023-01-17T07:56:13.397Z,0.85
2023-01-17T07:58:15.340Z,2.25
2023-01-17T08:00:18.093Z,1.48
2023-01-17T08:02:22.567Z,0.90
2023-01-17T08:04:27.553Z,2.25
2023-01-17T08:06:29.324Z,0.73
2023-01-17T08:08:31.246Z,1.80
2023-01-17T08:10:32.976Z,1.80
2023-01-17T08:12:35.935Z,2.45
2023-01-17T08:14:37.584Z,1.77
2023-01-17T08:16:40.135Z,3.90
2023-01-17T08:18:45.748Z,3.10
2023-01-17T08:20:47.407Z,5.38
2023-01-17T08:22:51.777Z,5.90
2023-01-17T08:24:53.495Z,2.67
2023-01-17T08:26:56.230Z,3.05
2023-01-17T08:29:02.412Z,4.85
2023-01-17T08:31:08.915Z,1.20
2023-01-17T08:33:10.780Z,4.32
2023-01-17T08:35:12.655Z,2.20
2023-01-17T08:37:14.356Z,4.55
2023-01-17T08:39:16.079Z,3.35
2023-01-17T08:41:17.754Z,4.50
2023-01-17T08:43:19.685Z,4.05
2023-01-17T08:45:21.349Z,2.17
2023-01-17T08:47:26.278Z,2.42
2023-01-17T08:49:30.913Z,4.65
2023-01-17T08:51:33.489Z,2.47
2023-01-17T08:53:35.201Z,2.17
2023-01-17T08:55:40.800Z,2.25
2023-01-17T08:57:42.689Z,2.83
2023-01-17T08:59:44.352Z,3.15
2023-01-17T09:01:46.257Z,2.10
2023-01-17T09:03:49.237Z,3.47
2023-01-17T09:05:50.970Z,1.15
2023-01-17T09:07:52.697Z,1.45
2023-01-17T09:09:54.569Z,1.65
2023-01-17T09:11:56.275Z,2.47
2023-01-17T09:13:57.994Z,3.15
2023-01-17T09:16:00.783Z,1.90
2023-01-17T09:18:02.586Z,1.30
2023-01-17T09:20:04.566Z,1.42
2023-01-17T09:22:06.661Z,1.67
2023-01-17T09:24:08.487Z,1.58
2023-01-17T09:26:19.121Z,2.40
2023-01-17T09:28:21.388Z,3.35
2023-01-17T09:30:23.875Z,2.97
2023-01-17T09:34:27.243Z,1.15
2023-01-17T09:36:33.749Z,1.00
2023-01-17T09:38:36.193Z,2.60
2023-01-17T09:42:51.810Z,2.42
2023-01-17T09:44:54.268Z,1.23
2023-01-17T09:48:59.948Z,1.30
2023-01-17T09:51:19.836Z,0.60
2023-01-17T09:53:21.909Z,1.98
2023-01-17T09:55:23.907Z,1.60
2023-01-17T09:57:34.658Z,1.13
2023-01-17T10:00:04.067Z,0.65
2023-01-17T10:02:38.898Z,2.95
2023-01-17T10:04:57.573Z,0.60
2023-01-17T10:07:32.482Z,1.08
2023-01-17T10:10:02.869Z,0.40
2023-01-17T10:12:33.462Z,0.93
2023-01-17T10:14:56.757Z,0.47
2023-01-17T10:17:16.499Z,1.15
2023-01-17T10:19:37.215Z,0.80
2023-01-17T10:22:23.426Z,1.27
2023-01-17T10:24:38.063Z,1.55
2023-01-17T10:26:39.914Z,2.75
2023-01-17T10:28:51.120Z,0.88
2023-01-17T10:31:02.606Z,0.20
2023-01-17T10:33:16.106Z,0.30
2023-01-17T10:35:26.321Z,0.13
2023-01-17T10:37:36.743Z,0.68
2023-01-17T10:39:39.391Z,0.75
2023-01-17T10:41:44.940Z,0.43
2023-01-17T10:44:05.984Z,0.10
2023-01-17T10:46:16.833Z,1.38
2023-01-17T10:48:38.865Z,0.20
2023-01-17T10:50:48.133Z,0.17
2023-01-17T10:53:01.072Z,0.50
2023-01-17T10:55:27.520Z,0.60
2023-01-17T10:57:33.045Z,0.35
2023-01-17T10:59:37.162Z,0.10
2023-01-17T11:01:39.328Z,0.40
2023-01-17T11:03:44.064Z,0.30
2023-01-17T11:05:45.739Z,2.65
2023-01-17T11:08:08.384Z,0.50
2023-01-17T11:10:39.823Z,0.50
2023-01-17T11:12:45.729Z,0.28
2023-01-17T11:14:58.593Z,0.20
2023-01-17T11:17:05.988Z,0.10
2023-01-17T11:19:16.133Z,0.10
2023-01-17T11:21:25.407Z,0.30
2023-01-17T11:23:33.158Z,0.20
2023-01-17T11:25:35.211Z,0.57
2023-01-17T11:27:42.450Z,3.08
2023-01-17T11:29:44.219Z,0.60
2023-01-17T11:31:45.945Z,0.55
2023-01-17T11:33:53.904Z,0.30
2023-01-17T11:35:55.836Z,1.15
2023-01-17T11:38:15.036Z,0.10
2023-01-17T11:40:42.233Z,0.30
2023-01-17T11:42:43.894Z,0.20
2023-01-17T11:44:45.693Z,0.20
2023-01-17T11:46:47.588Z,0.13
2023-01-17T11:48:56.330Z,0.10
2023-01-17T11:50:59.962Z,0.43
2023-01-17T11:53:33.122Z,0.80
2023-01-17T11:57:36.607Z,1.20
2023-01-17T11:59:42.974Z,0.70
2023-01-17T12:01:47.779Z,0.10
2023-01-17T12:04:08.197Z,1.27
2023-01-17T12:06:20.202Z,0.35
2023-01-17T12:09:03.394Z,0.00
2023-01-17T12:11:11.149Z,0.10
2023-01-17T12:13:52.325Z,0.00
2023-01-17T12:16:30.846Z,1.08
2023-01-17T12:18:50.570Z,0.10
2023-01-17T12:21:16.518Z,0.52
2023-01-17T12:23:36.859Z,0.30
2023-01-17T12:26:03.551Z,1.52
2023-01-17T12:28:42.226Z,0.03
2023-01-17T12:31:03.202Z,0.10
2023-01-17T12:33:13.689Z,0.20
2023-01-17T12:35:20.417Z,0.43
2023-01-17T12:37:25.046Z,0.17
2023-01-17T12:39:37.165Z,0.00
2023-01-17T12:42:08.983Z,0.10
2023-01-17T12:44:14.332Z,1.05
2023-01-17T12:46:40.607Z,0.20
2023-01-17T12:48:43.595Z,0.10
2023-01-17T12:50:54.351Z,0.40
2023-01-17T12:53:29.295Z,0.00
2023-01-17T12:55:49.852Z,0.55
2023-01-17T12:57:57.167Z,0.93
2023-01-17T13:00:06.578Z,0.30
2023-01-17T13:02:31.407Z,0.13
2023-01-17T13:04:57.382Z,0.22
2023-01-17T13:07:00.300Z,0.05
2023-01-17T13:09:03.772Z,0.10
2023-01-17T13:11:14.824Z,0.17
2023-01-17T13:13:25.606Z,0.00
2023-01-17T13:15:37.455Z,0.30
2023-01-17T13:17:39.067Z,0.10
2023-01-17T13:19:59.126Z,0.25
2023-01-17T13:22:04.355Z,0.35
2023-01-17T13:24:31.566Z,0.20
2023-01-17T13:26:50.490Z,0.30
2023-01-17T13:29:02.287Z,1.80
2023-01-17T13:31:31.414Z,0.97
2023-01-17T13:33:55.139Z,0.20
2023-01-17T13:36:15.545Z,0.90
2023-01-17T13:38:20.050Z,0.10
2023-01-17T13:40:39.930Z,0.00
2023-01-17T13:42:53.379Z,0.38
2023-01-17T13:44:56.728Z,1.67
2023-01-17T13:47:18.627Z,0.03
2023-01-17T13:49:31.506Z,0.20
2023-01-17T13:52:27.616Z,0.45
2023-01-17T13:54:33.565Z,0.88
2023-01-17T13:56:36.185Z,0.10
2023-01-17T13:59:00.523Z,0.10
2023-01-17T14:01:02.497Z,0.20
2023-01-17T14:03:05.070Z,0.15
2023-01-17T14:07:25.184Z,0.03
2023-01-17T14:09:30.385Z,0.08
2023-01-17T14:11:37.115Z,1.08
2023-01-17T14:13:40.137Z,0.35
2023-01-17T14:15:49.911Z,0.80
2023-01-17T14:17:56.438Z,0.50
2023-01-17T14:20:19.295Z,0.25
2023-01-17T14:22:20.984Z,0.68
2023-01-17T14:24:22.687Z,1.92
2023-01-17T14:26:56.546Z,0.17
2023-01-17T14:29:19.309Z,0.25
2023-01-17T14:31:23.234Z,0.20
2023-01-17T14:33:34.299Z,0.10
2023-01-17T14:35:37.449Z,0.25
2023-01-17T14:37:46.046Z,2.97
2023-01-17T14:39:50.382Z,0.65
2023-01-17T14:41:52.240Z,2.22
2023-01-17T14:43:54.754Z,0.75
2023-01-17T14:48:02.268Z,1.13
2023-01-17T14:50:23.326Z,0.38
2023-01-17T14:52:25.097Z,1.52
2023-01-17T14:54:26.760Z,0.40
2023-01-17T14:56:30.415Z,0.20
2023-01-17T14:58:34.797Z,0.63
2023-01-17T15:00:39.255Z,0.93
2023-01-17T15:02:43.462Z,0.98
2023-01-17T15:04:53.254Z,1.35
2023-01-17T15:06:57.693Z,0.63
2023-01-17T15:09:03.239Z,0.95
2023-01-17T15:11:09.399Z,0.40
2023-01-17T15:13:11.292Z,0.40
2023-01-17T15:15:38.586Z,1.92
2023-01-17T15:17:40.316Z,0.50
2023-01-17T15:19:44.472Z,0.55
2023-01-17T15:21:50.571Z,0.52
2023-01-17T15:23:58.073Z,2.80
2023-01-17T15:26:01.543Z,0.73
2023-01-17T15:28:05.535Z,0.82
2023-01-17T15:30:08.178Z,0.20
2023-01-17T15:32:22.480Z,0.55
2023-01-17T15:34:43.771Z,0.30
2023-01-17T15:36:49.299Z,1.50
2023-01-17T15:39:03.893Z,0.65
2023-01-17T15:41:12.862Z,0.93
2023-01-17T15:43:29.759Z,1.70
2023-01-17T15:45:36.136Z,1.70
2023-01-17T15:47:39.016Z,0.60
2023-01-17T15:49:51.318Z,0.60
2023-01-17T15:51:59.294Z,1.50
2023-01-17T15:54:40.944Z,0.98
2023-01-17T15:56:45.558Z,2.53
2023-01-17T15:58:52.073Z,2.65
2023-01-17T16:00:54.525Z,2.67
2023-01-17T16:05:25.653Z,0.40
2023-01-17T16:07:35.431Z,2.92
2023-01-17T16:09:44.734Z,0.88
2023-01-17T16:11:46.423Z,1.75
2023-01-17T16:13:48.509Z,0.55
2023-01-17T16:15:50.418Z,1.67
2023-01-17T16:17:57.058Z,3.35
2023-01-17T16:19:59.317Z,0.70
2023-01-17T16:22:05.099Z,0.95
2023-01-17T16:24:10.753Z,0.73
2023-01-17T16:26:29.875Z,0.93
2023-01-17T16:28:31.705Z,1.02
2023-01-17T16:30:34.093Z,0.32
2023-01-17T16:34:37.427Z,0.80
2023-01-17T16:36:39.194Z,1.10
2023-01-17T16:38:42.105Z,2.92
2023-01-17T16:40:45.740Z,3.58
2023-01-17T16:42:47.756Z,3.28
2023-01-17T16:44:49.456Z,1.67
2023-01-17T16:46:51.255Z,2.58
2023-01-17T16:48:52.985Z,2.40
2023-01-17T16:50:54.730Z,1.38
2023-01-17T16:52:56.994Z,2.30
2023-01-17T16:54:58.746Z,1.52
2023-01-17T16:57:00.496Z,1.17
2023-01-17T16:59:02.129Z,1.30
2023-01-17T17:01:09.321Z,3.13
2023-01-17T17:03:17.017Z,0.68
2023-01-17T17:05:19.324Z,2.65
2023-01-17T17:07:20.964Z,2.28
2023-01-17T17:09:25.392Z,2.83
2023-01-17T17:11:27.145Z,2.90
2023-01-17T17:13:28.894Z,1.35
2023-01-17T17:15:30.828Z,0.57
2023-01-17T17:17:40.855Z,1.13
2023-01-17T17:19:42.847Z,3.10
2023-01-17T17:21:45.313Z,3.75
2023-01-17T17:25:56.528Z,0.75
2023-01-17T17:27:58.295Z,1.58
2023-01-17T17:30:00.148Z,1.67
2023-01-17T17:32:01.895Z,4.35
2023-01-17T17:34:05.160Z,1.13
2023-01-17T17:36:10.158Z,1.55
2023-01-17T17:38:11.981Z,0.98
2023-01-17T17:40:13.681Z,0.70
2023-01-17T17:42:15.583Z,0.65
2023-01-17T17:44:17.487Z,1.30
2023-01-17T17:46:21.087Z,2.13
2023-01-17T17:48:22.892Z,1.40
2023-01-17T17:50:24.736Z,2.97
2023-01-17T17:52:27.984Z,4.32
2023-01-17T17:54:29.824Z,0.70
2023-01-17T17:56:32.921Z,1.65
2023-01-17T17:58:35.783Z,0.50
2023-01-17T18:00:37.466Z,1.25
2023-01-17T18:02:39.167Z,1.25
2023-01-17T18:04:40.994Z,3.45
2023-01-17T18:06:43.323Z,3.30
2023-01-17T18:08:45.074Z,3.30
2023-01-17T18:10:46.808Z,1.98
2023-01-17T18:12:49.311Z,0.95
2023-01-17T18:16:52.658Z,2.58
2023-01-17T18:18:56.494Z,1.30
2023-01-17T18:21:09.320Z,2.03
2023-01-17T18:25:12.639Z,0.63
2023-01-17T18:27:14.360Z,2.20
2023-01-17T18:29:17.701Z,2.13
2023-01-17T18:31:19.881Z,3.65
2023-01-17T18:33:23.674Z,2.33
2023-01-17T18:35:25.366Z,1.35
2023-01-17T18:37:27.081Z,1.17
2023-01-17T18:39:30.344Z,1.40
2023-01-17T18:41:32.182Z,1.33
2023-01-17T18:43:34.283Z,2.20
2023-01-17T18:45:36.341Z,1.98
2023-01-17T18:47:38.782Z,1.88
2023-01-17T18:51:46.532Z,4.10
2023-01-17T18:53:48.345Z,2.17
2023-01-17T18:55:57.823Z,1.77
2023-01-17T18:57:59.614Z,4.57
2023-01-17T19:00:02.328Z,3.90
2023-01-17T19:02:04.209Z,4.50
2023-01-17T19:04:07.402Z,3.85
2023-01-17T19:06:12.816Z,4.13
2023-01-17T19:08:16.115Z,1.83
2023-01-17T19:10:19.747Z,4.03
2023-01-17T19:12:23.899Z,1.60
2023-01-17T19:14:26.185Z,2.72
2023-01-17T19:16:30.854Z,2.88
2023-01-17T19:18:33.049Z,4.50
2023-01-17T19:20:35.372Z,2.35
2023-01-17T19:22:37.074Z,4.35
2023-01-17T19:24:38.869Z,6.40
2023-01-17T19:26:41.388Z,3.58
2023-01-17T19:30:46.053Z,2.00
2023-01-17T19:32:51.201Z,2.67
2023-01-17T19:34:52.908Z,4.50
2023-01-17T19:36:56.255Z,1.85
2023-01-17T19:39:06.309Z,5.20
2023-01-17T19:41:20.223Z,1.90
2023-01-17T19:43:22.515Z,2.22
2023-01-17T19:45:24.255Z,6.22
2023-01-17T19:47:26.047Z,3.75
2023-01-17T19:49:27.875Z,3.00
2023-01-17T19:51:30.016Z,4.25
2023-01-17T19:53:31.781Z,3.65
2023-01-17T19:55:33.459Z,2.92
2023-01-17T19:57:36.956Z,2.90
2023-01-17T19:59:38.628Z,2.05
2023-01-17T20:01:40.561Z,3.25
2023-01-17T20:03:46.172Z,3.22
2023-01-17T20:05:56.659Z,5.13
2023-01-17T20:07:58.829Z,4.90
2023-01-17T20:10:00.859Z,3.05
2023-01-17T20:12:02.676Z,5.30
2023-01-17T20:14:07.622Z,7.10
2023-01-17T20:16:11.609Z,7.53
2023-01-17T20:18:13.910Z,2.65
2023-01-17T20:20:16.038Z,7.38
2023-01-17T20:22:23.274Z,4.97
2023-01-17T20:24:28.420Z,3.40
2023-01-17T20:26:41.703Z,4.07
2023-01-17T20:32:01.647Z,4.63
2023-01-17T20:34:03.375Z,2.83
2023-01-17T20:36:10.673Z,1.90
2023-01-17T20:38:12.842Z,4.00
2023-01-17T20:40:14.678Z,5.15
2023-01-17T20:42:16.481Z,4.82
2023-01-17T20:44:19.512Z,3.53
2023-01-17T20:46:23.657Z,3.63
2023-01-17T20:48:26.484Z,3.83
2023-01-17T20:50:28.179Z,3.38
2023-01-17T20:52:29.968Z,3.85
2023-01-17T20:54:31.639Z,2.72
2023-01-17T20:56:37.720Z,2.97
2023-01-17T20:58:39.957Z,3.28
2023-01-17T21:00:42.211Z,8.10
2023-01-17T21:02:45.251Z,3.85
2023-01-17T21:04:46.988Z,3.50
2023-01-17T21:06:51.603Z,4.05
2023-01-17T21:08:53.757Z,3.30
2023-01-17T21:10:55.503Z,2.10
2023-01-17T21:12:57.391Z,2.83
2023-01-17T21:14:59.171Z,3.20
2023-01-17T21:17:00.883Z,1.73
2023-01-17T21:19:03.424Z,6.20
2023-01-17T21:23:15.183Z,1.83
2023-01-17T21:25:17.693Z,3.05
2023-01-17T21:29:23.322Z,5.13
2023-01-17T21:31:33.431Z,3.80
2023-01-17T21:33:35.143Z,2.53
2023-01-17T21:35:36.864Z,3.83
2023-01-17T21:37:38.699Z,6.85
2023-01-17T21:39:40.396Z,3.90
2023-01-17T21:41:42.838Z,4.32
2023-01-17T21:43:44.616Z,7.93
2023-01-17T21:45:46.507Z,3.40
2023-01-17T21:47:49.884Z,4.15
2023-01-17T21:49:51.643Z,6.20
2023-01-17T21:51:53.483Z,5.88
2023-01-17T21:53:55.222Z,6.65
2023-01-17T21:56:22.482Z,3.60
2023-01-17T21:58:42.849Z,3.35
2023-01-17T22:00:45.552Z,3.00
2023-01-17T22:02:48.222Z,3.83
2023-01-17T22:04:50.260Z,7.40
2023-01-17T22:06:52.098Z,2.97
2023-01-17T22:08:54.181Z,4.57
2023-01-17T22:10:55.883Z,3.17
2023-01-17T22:12:57.722Z,2.97
2023-01-17T22:14:59.607Z,4.93
2023-01-17T22:17:01.426Z,5.20
2023-01-17T22:19:03.212Z,3.85
2023-01-17T22:21:17.005Z,7.75
2023-01-17T22:23:18.993Z,4.20
2023-01-17T22:25:21.124Z,4.72
2023-01-17T22:27:22.967Z,2.97
2023-01-17T22:29:24.794Z,4.72
2023-01-17T22:31:28.298Z,3.40
2023-01-17T22:33:30.081Z,3.83
2023-01-17T22:35:31.734Z,2.88
2023-01-17T22:37:34.388Z,3.30
2023-01-17T22:39:36.366Z,3.15
2023-01-17T22:41:38.861Z,2.78
2023-01-17T22:45:45.852Z,2.53
2023-01-17T22:47:48.545Z,3.22
2023-01-17T22:49:50.213Z,4.65
2023-01-17T22:51:52.054Z,6.85
2023-01-17T22:53:59.927Z,2.80
2023-01-17T22:56:12.109Z,5.97
2023-01-17T22:58:13.893Z,4.22
2023-01-17T23:00:15.995Z,4.78
2023-01-17T23:02:18.392Z,3.55
2023-01-17T23:04:20.100Z,5.63
2023-01-17T23:06:28.698Z,4.03
2023-01-17T23:08:30.457Z,3.42
2023-01-17T23:11:07.706Z,5.78
2023-01-17T23:13:10.339Z,4.28
2023-01-17T23:15:30.769Z,5.25
2023-01-17T23:17:51.159Z,5.75
2023-01-17T23:19:56.754Z,2.47
2023-01-17T23:22:18.743Z,5.22
2023-01-17T23:24:20.412Z,3.17
2023-01-17T23:26:22.133Z,4.07
2023-01-17T23:28:23.794Z,5.25
2023-01-17T23:30:25.509Z,5.28
2023-01-17T23:32:27.620Z,1.90
2023-01-17T23:34:29.352Z,3.80
2023-01-17T23:36:31.077Z,4.25
2023-01-17T23:38:37.514Z,3.97
2023-01-17T23:40:40.038Z,5.00
2023-01-17T23:45:02.338Z,4.53
2023-01-17T23:47:04.096Z,7.80
2023-01-17T23:49:05.826Z,4.50
2023-01-17T23:51:08.236Z,3.10
2023-01-17T23:55:13.540Z,2.88
2023-01-17T23:57:15.320Z,4.80
2023-01-17T23:59:17.156Z,4.55
